Time;durP1;ratioP1;P1;durP2;ratioP2;P2;SDS_P1;SDS_P2;PMS_P1;PMS_P2;Temp;Humidity;BMP_temperature;BMP_pressure;BME280_temperature;BME280_humidity;BME280_pressure;Samples;Min_cycle;Max_cycle;Signal;HPM_P1;HPM_P2
2021/05/04 00:01:44;;;;;;;63.30;15.20;;;;;;;;;;4926146;28;20857;-59
2021/05/04 00:04:15;;;;;;;50.47;15.52;;;;;;;;;;4927233;28;20114;-58
2021/05/04 00:06:41;;;;;;;56.80;15.05;;;;;;;;;;4927963;28;20050;-59
2021/05/04 00:09:06;;;;;;;53.78;15.45;;;;;;;;;;4945473;28;20068;-58
2021/05/04 00:11:33;;;;;;;51.50;15.18;;;;;;;;;;4946964;28;20086;-58
2021/05/04 00:13:58;;;;;;;46.65;15.63;;;;;;;;;;4930472;28;20032;-59
2021/05/04 00:16:24;;;;;;;41.60;12.65;;;;;;;;;;4899458;28;20089;-58
2021/05/04 00:18:52;;;;;;;46.88;14.38;;;;;;;;;;4948273;28;20118;-58
2021/05/04 00:21:18;;;;;;;43.50;14.25;;;;;;;;;;4930911;28;20027;-59
2021/05/04 00:23:46;;;;;;;50.42;14.85;;;;;;;;;;4930595;28;20039;-58
2021/05/04 00:26:11;;;;;;;36.15;12.45;;;;;;;;;;4929170;28;20049;-59
2021/05/04 00:28:37;;;;;;;48.78;13.70;;;;;;;;;;4930798;28;20204;-58
2021/05/04 00:31:05;;;;;;;50.03;14.20;;;;;;;;;;4930948;28;20039;-59
2021/05/04 00:33:31;;;;;;;36.15;13.55;;;;;;;;;;4928367;28;20038;-58
2021/05/04 00:35:58;;;;;;;34.63;12.05;;;;;;;;;;4927783;28;20062;-58
2021/05/04 00:38:24;;;;;;;39.95;13.10;;;;;;;;;;4928830;28;20505;-59
2021/05/04 00:40:52;;;;;;;38.45;11.95;;;;;;;;;;4936575;28;20126;-58
2021/05/04 00:43:18;;;;;;;40.85;11.98;;;;;;;;;;4930259;28;20039;-58
2021/05/04 00:45:45;;;;;;;40.63;12.95;;;;;;;;;;4932059;28;20039;-58
2021/05/04 00:48:14;;;;;;;35.05;11.88;;;;;;;;;;4914188;28;20438;-57
2021/05/04 00:50:44;;;;;;;45.08;12.25;;;;;;;;;;4929945;28;20375;-58
2021/05/04 00:53:11;;;;;;;39.40;11.80;;;;;;;;;;4926862;28;22036;-58
2021/05/04 00:55:37;;;;;;;35.13;12.30;;;;;;;;;;4930852;28;20032;-56
2021/05/04 00:58:03;;;;;;;38.95;11.95;;;;;;;;;;4930199;28;20106;-58
2021/05/04 01:00:31;;;;;;;34.00;10.73;;;;;;;;;;4929323;28;20419;-60
2021/05/04 01:03:00;;;;;;;35.90;12.32;;;;;;;;;;4944711;28;20047;-58
2021/05/04 01:05:26;;;;;;;41.47;12.57;;;;;;;;;;4931535;28;20081;-58
2021/05/04 01:07:51;;;;;;;36.40;11.30;;;;;;;;;;4929527;28;20039;-59
2021/05/04 01:10:17;;;;;;;33.63;10.98;;;;;;;;;;4931027;28;20046;-59
2021/05/04 01:12:43;;;;;;;34.53;10.70;;;;;;;;;;4928208;28;20597;-58
2021/05/04 01:15:09;;;;;;;37.85;12.18;;;;;;;;;;4930121;28;20046;-59
2021/05/04 01:17:35;;;;;;;40.45;11.40;;;;;;;;;;4929909;28;20043;-58
2021/05/04 01:20:02;;;;;;;35.20;12.43;;;;;;;;;;4928624;28;20063;-58
2021/05/04 01:22:31;;;;;;;37.28;12.40;;;;;;;;;;4925177;28;20051;-58
2021/05/04 01:24:59;;;;;;;34.03;11.18;;;;;;;;;;4930636;28;20051;-58
2021/05/04 01:27:28;;;;;;;31.55;10.82;;;;;;;;;;4929593;28;20541;-56
2021/05/04 01:29:53;;;;;;;31.48;11.00;;;;;;;;;;4931632;28;20061;-58
2021/05/04 01:32:24;;;;;;;39.25;12.57;;;;;;;;;;4944675;28;20958;-57
2021/05/04 01:34:55;;;;;;;39.47;11.38;;;;;;;;;;4930139;28;20035;-56
2021/05/04 01:37:23;;;;;;;32.45;11.38;;;;;;;;;;4929166;28;20505;-56
2021/05/04 01:39:50;;;;;;;32.80;11.45;;;;;;;;;;4931785;28;20062;-56
2021/05/04 01:42:16;;;;;;;29.98;11.50;;;;;;;;;;4922708;28;20031;-56
2021/05/04 01:44:44;;;;;;;25.42;10.35;;;;;;;;;;4927362;28;20043;-56
2021/05/04 01:47:11;;;;;;;32.38;12.10;;;;;;;;;;4929659;28;20041;-57
2021/05/04 01:49:39;;;;;;;38.30;11.57;;;;;;;;;;4930242;28;20031;-57
2021/05/04 01:52:07;;;;;;;36.58;12.57;;;;;;;;;;4907029;28;20079;-57
2021/05/04 01:54:33;;;;;;;44.58;13.32;;;;;;;;;;4922916;28;20086;-57
2021/05/04 01:57:02;;;;;;;37.55;12.45;;;;;;;;;;4930579;28;20092;-56
2021/05/04 01:59:28;;;;;;;39.63;12.18;;;;;;;;;;4929812;28;20177;-56
2021/05/04 02:01:54;;;;;;;31.85;11.95;;;;;;;;;;4929064;28;20047;-56
2021/05/04 02:04:20;;;;;;;47.05;13.02;;;;;;;;;;4928244;28;20130;-56
2021/05/04 02:06:49;;;;;;;40.78;10.88;;;;;;;;;;4929659;28;20046;-56
2021/05/04 02:09:15;;;;;;;31.08;10.60;;;;;;;;;;4945837;28;20142;-56
2021/05/04 02:11:43;;;;;;;37.15;12.02;;;;;;;;;;4929225;28;20046;-56
2021/05/04 02:14:09;;;;;;;35.65;12.73;;;;;;;;;;4929461;28;20129;-57
2021/05/04 02:16:37;;;;;;;43.47;12.23;;;;;;;;;;4912391;28;20027;-57
2021/05/04 02:19:05;;;;;;;33.60;12.02;;;;;;;;;;4926604;28;20401;-56
2021/05/04 02:21:33;;;;;;;34.13;11.18;;;;;;;;;;4929420;28;20039;-57
2021/05/04 02:24:04;;;;;;;39.20;11.55;;;;;;;;;;4930634;28;20090;-55
2021/05/04 02:26:32;;;;;;;37.30;11.45;;;;;;;;;;4930714;28;20105;-56
2021/05/04 02:28:58;;;;;;;31.13;11.32;;;;;;;;;;4942540;28;20051;-56
2021/05/04 02:31:26;;;;;;;33.80;10.75;;;;;;;;;;4928460;28;20507;-55
2021/05/04 02:33:53;;;;;;;28.30;11.13;;;;;;;;;;4930737;28;20118;-53
2021/05/04 02:36:21;;;;;;;33.72;11.57;;;;;;;;;;4928130;28;20052;-54
2021/05/04 02:38:54;;;;;;;30.73;10.30;;;;;;;;;;4906006;28;22098;-56
2021/05/04 02:41:22;;;;;;;27.48;10.23;;;;;;;;;;4930529;28;20123;-56
2021/05/04 02:43:50;;;;;;;25.67;10.30;;;;;;;;;;4929374;28;20059;-57
2021/05/04 02:46:16;;;;;;;33.70;9.90;;;;;;;;;;4929535;28;20039;-55
2021/05/04 02:48:43;;;;;;;28.60;10.63;;;;;;;;;;4929139;28;20062;-57
2021/05/04 02:51:10;;;;;;;30.90;10.05;;;;;;;;;;4931914;28;20033;-55
2021/05/04 02:53:38;;;;;;;25.95;10.40;;;;;;;;;;4942009;28;20705;-55
2021/05/04 02:56:05;;;;;;;27.30;9.27;;;;;;;;;;4933262;28;20081;-55
2021/05/04 02:58:33;;;;;;;25.45;9.50;;;;;;;;;;4930517;28;20031;-54
2021/05/04 03:01:04;;;;;;;26.27;9.15;;;;;;;;;;4933749;28;20162;-54
2021/05/04 03:03:34;;;;;;;20.38;9.05;;;;;;;;;;4932943;28;20070;-55
2021/05/04 03:06:02;;;;;;;21.85;8.77;;;;;;;;;;4933712;28;20043;-55
2021/05/04 03:08:28;;;;;;;26.05;8.93;;;;;;;;;;4933715;28;20035;-56
2021/05/04 03:10:54;;;;;;;15.93;7.43;;;;;;;;;;4933065;28;20031;-56
2021/05/04 03:13:27;;;;;;;20.42;7.47;;;;;;;;;;4931551;28;20066;-56
2021/05/04 03:15:52;;;;;;;22.67;7.55;;;;;;;;;;4925248;28;20035;-56
2021/05/04 03:18:18;;;;;;;20.83;7.18;;;;;;;;;;4934075;28;20054;-54
2021/05/04 03:20:48;;;;;;;14.15;6.75;;;;;;;;;;4925522;28;20031;-55
2021/05/04 03:23:14;;;;;;;20.10;6.93;;;;;;;;;;4946718;28;20035;-56
2021/05/04 03:25:45;;;;;;;15.35;6.05;;;;;;;;;;4932662;28;20150;-54
2021/05/04 03:28:13;;;;;;;17.48;7.07;;;;;;;;;;4931742;28;20125;-56
2021/05/04 03:30:39;;;;;;;19.10;7.43;;;;;;;;;;4932819;28;20118;-57
2021/05/04 03:33:05;;;;;;;16.15;6.10;;;;;;;;;;4931789;28;20035;-56
2021/05/04 03:35:32;;;;;;;17.65;6.28;;;;;;;;;;4933487;28;20061;-56
2021/05/04 03:38:03;;;;;;;13.00;6.55;;;;;;;;;;4930978;28;20034;-56
2021/05/04 03:40:34;;;;;;;13.82;5.90;;;;;;;;;;4931945;28;20036;-57
2021/05/04 03:43:05;;;;;;;17.00;6.38;;;;;;;;;;4932793;28;20058;-55
2021/05/04 03:45:31;;;;;;;14.38;6.32;;;;;;;;;;4932227;28;20035;-57
2021/05/04 03:47:56;;;;;;;16.42;6.40;;;;;;;;;;4925838;28;20466;-58
2021/05/04 03:50:24;;;;;;;8.35;5.53;;;;;;;;;;4928805;28;22047;-54
2021/05/04 03:52:50;;;;;;;14.70;6.28;;;;;;;;;;4939789;28;20145;-57
2021/05/04 03:55:16;;;;;;;13.98;5.93;;;;;;;;;;4932307;28;21966;-56
2021/05/04 03:57:48;;;;;;;10.98;6.00;;;;;;;;;;4946367;28;20031;-57
2021/05/04 04:00:16;;;;;;;15.40;5.97;;;;;;;;;;4931911;28;20071;-56
2021/05/04 04:02:42;;;;;;;14.25;6.35;;;;;;;;;;4930175;28;20050;-56
2021/05/04 04:05:10;;;;;;;14.95;5.97;;;;;;;;;;4930779;28;20050;-54
2021/05/04 04:07:38;;;;;;;14.73;6.60;;;;;;;;;;4939527;28;20984;-57
2021/05/04 04:10:07;;;;;;;14.50;6.93;;;;;;;;;;4932988;28;20035;-57
2021/05/04 04:12:33;;;;;;;15.88;6.55;;;;;;;;;;4925445;28;22003;-57
2021/05/04 04:15:01;;;;;;;14.77;6.15;;;;;;;;;;4930751;28;20038;-57
2021/05/04 04:17:29;;;;;;;16.60;6.78;;;;;;;;;;4933060;28;20767;-57
2021/05/04 04:19:55;;;;;;;16.45;6.47;;;;;;;;;;4913854;28;20043;-58
2021/05/04 04:22:21;;;;;;;10.63;5.63;;;;;;;;;;4930766;28;20027;-58
2021/05/04 04:24:46;;;;;;;17.38;6.40;;;;;;;;;;4930875;28;20532;-56
2021/05/04 04:27:15;;;;;;;12.90;5.88;;;;;;;;;;4929589;28;20082;-57
2021/05/04 04:29:42;;;;;;;19.08;5.85;;;;;;;;;;4915242;28;20157;-57
2021/05/04 04:32:13;;;;;;;10.98;5.78;;;;;;;;;;4931158;28;20035;-57
2021/05/04 04:34:38;;;;;;;19.20;6.82;;;;;;;;;;4931282;28;20084;-59
2021/05/04 04:37:06;;;;;;;16.10;7.25;;;;;;;;;;4929339;28;22133;-57
2021/05/04 04:39:34;;;;;;;14.15;6.43;;;;;;;;;;4928880;28;20506;-59
2021/05/04 04:42:00;;;;;;;13.07;5.50;;;;;;;;;;4931009;28;20082;-56
2021/05/04 04:44:27;;;;;;;16.17;6.03;;;;;;;;;;4932260;28;20032;-58
2021/05/04 04:46:55;;;;;;;12.18;6.43;;;;;;;;;;4944643;28;20094;-56
2021/05/04 04:49:23;;;;;;;17.27;5.22;;;;;;;;;;4931722;28;20058;-58
2021/05/04 04:51:50;;;;;;;14.48;5.90;;;;;;;;;;4930092;28;20027;-55
2021/05/04 04:54:16;;;;;;;16.95;6.03;;;;;;;;;;4930530;28;20039;-57
2021/05/04 04:56:44;;;;;;;19.15;6.38;;;;;;;;;;4930096;28;20038;-57
2021/05/04 04:59:10;;;;;;;15.52;6.30;;;;;;;;;;4929901;28;20042;-57
2021/05/04 05:01:39;;;;;;;12.48;6.20;;;;;;;;;;4932760;28;20071;-56
2021/05/04 05:04:09;;;;;;;21.33;6.63;;;;;;;;;;4931954;28;20035;-54
2021/05/04 05:06:35;;;;;;;11.43;6.07;;;;;;;;;;4944481;28;20379;-55
2021/05/04 05:09:06;;;;;;;19.77;6.28;;;;;;;;;;4911422;28;20058;-54
2021/05/04 05:11:34;;;;;;;17.42;6.13;;;;;;;;;;4928258;28;20039;-57
2021/05/04 05:14:04;;;;;;;16.85;5.72;;;;;;;;;;4913560;28;20131;-53
2021/05/04 05:16:32;;;;;;;13.73;6.22;;;;;;;;;;4931556;28;20031;-55
2021/05/04 05:18:57;;;;;;;10.13;4.80;;;;;;;;;;4928295;28;20046;-57
2021/05/04 05:21:26;;;;;;;8.80;5.00;;;;;;;;;;4930012;28;20107;-55
2021/05/04 05:23:54;;;;;;;9.07;3.88;;;;;;;;;;4930023;28;20900;-56
2021/05/04 05:26:20;;;;;;;7.97;3.80;;;;;;;;;;4931257;28;20618;-57
2021/05/04 05:28:46;;;;;;;9.98;4.80;;;;;;;;;;4931104;28;20050;-54
2021/05/04 05:31:11;;;;;;;7.47;4.03;;;;;;;;;;4921798;28;20107;-56
2021/05/04 05:33:37;;;;;;;20.65;4.35;;;;;;;;;;4928739;28;20123;-56
2021/05/04 05:36:06;;;;;;;6.53;2.80;;;;;;;;;;4929854;28;20043;-56
2021/05/04 05:38:34;;;;;;;3.78;2.40;;;;;;;;;;4946718;28;20047;-56
2021/05/04 05:40:59;;;;;;;8.82;2.58;;;;;;;;;;4928693;28;20905;-57
2021/05/04 05:43:25;;;;;;;9.55;4.10;;;;;;;;;;4927069;28;20097;-57
2021/05/04 05:45:51;;;;;;;6.10;3.53;;;;;;;;;;4929305;28;20062;-58
2021/05/04 05:48:16;;;;;;;10.05;3.95;;;;;;;;;;4929550;28;20035;-56
2021/05/04 05:50:44;;;;;;;7.68;3.22;;;;;;;;;;4915028;28;20031;-57
2021/05/04 05:53:10;;;;;;;5.45;3.28;;;;;;;;;;4928646;28;20067;-57
2021/05/04 05:55:38;;;;;;;4.22;3.15;;;;;;;;;;4913036;28;20035;-58
2021/05/04 05:58:03;;;;;;;7.03;3.05;;;;;;;;;;4929502;28;20039;-57
2021/05/04 06:00:31;;;;;;;7.28;3.40;;;;;;;;;;4929824;28;20031;-56
2021/05/04 06:03:02;;;;;;;9.05;3.17;;;;;;;;;;4927678;28;20531;-57
2021/05/04 06:05:28;;;;;;;10.38;3.08;;;;;;;;;;4928973;28;20976;-56
2021/05/04 06:07:53;;;;;;;11.35;2.97;;;;;;;;;;4927511;28;20704;-55
2021/05/04 06:10:21;;;;;;;9.65;3.42;;;;;;;;;;4926960;28;20043;-56
2021/05/04 06:12:57;;;;;;;7.53;3.92;;;;;;;;;;4929702;28;20031;-54
2021/05/04 06:15:26;;;;;;;10.57;3.38;;;;;;;;;;4927637;28;20031;-57
2021/05/04 06:17:51;;;;;;;14.35;3.92;;;;;;;;;;4947028;28;20042;-56
2021/05/04 06:20:19;;;;;;;8.38;3.15;;;;;;;;;;4913095;28;20035;-57
2021/05/04 06:22:44;;;;;;;9.25;3.28;;;;;;;;;;4927898;28;22129;-58
2021/05/04 06:25:10;;;;;;;7.30;3.08;;;;;;;;;;4927537;28;20126;-57
2021/05/04 06:27:36;;;;;;;14.13;3.67;;;;;;;;;;4925357;28;20035;-56
2021/05/04 06:30:04;;;;;;;10.65;3.25;;;;;;;;;;4909313;28;20035;-56
2021/05/04 06:32:30;;;;;;;7.35;2.75;;;;;;;;;;4927697;28;20038;-57
2021/05/04 06:34:56;;;;;;;7.22;3.10;;;;;;;;;;4930133;28;20498;-56
2021/05/04 06:37:22;;;;;;;4.95;2.75;;;;;;;;;;4943380;28;20078;-57
2021/05/04 06:39:50;;;;;;;10.63;3.50;;;;;;;;;;4931101;28;20057;-56
2021/05/04 06:42:22;;;;;;;17.42;3.47;;;;;;;;;;4923886;28;20074;-57
2021/05/04 06:44:51;;;;;;;12.15;3.63;;;;;;;;;;4926691;28;20047;-56
2021/05/04 06:47:18;;;;;;;11.40;3.38;;;;;;;;;;4927275;28;20266;-56
2021/05/04 06:49:44;;;;;;;18.70;3.75;;;;;;;;;;4942776;28;20134;-56
2021/05/04 06:52:10;;;;;;;12.05;3.05;;;;;;;;;;4925365;28;20037;-56
2021/05/04 06:54:40;;;;;;;14.20;3.65;;;;;;;;;;4928172;28;20031;-54
2021/05/04 06:57:09;;;;;;;13.55;3.25;;;;;;;;;;4924368;28;20039;-56
2021/05/04 06:59:35;;;;;;;4.63;2.30;;;;;;;;;;4921010;28;20057;-54
2021/05/04 07:02:01;;;;;;;10.65;3.33;;;;;;;;;;4939868;28;22094;-58
2021/05/04 07:04:26;;;;;;;9.35;2.38;;;;;;;;;;4925483;28;22070;-58
2021/05/04 07:06:55;;;;;;;16.33;2.92;;;;;;;;;;4937312;28;20119;-56
2021/05/04 07:09:22;;;;;;;9.88;2.30;;;;;;;;;;4921550;28;20077;-56
2021/05/04 07:11:48;;;;;;;7.95;1.92;;;;;;;;;;4925234;28;20046;-56
2021/05/04 07:14:21;;;;;;;18.50;3.30;;;;;;;;;;4918639;28;20031;-56
2021/05/04 07:16:49;;;;;;;7.90;2.35;;;;;;;;;;4919308;28;20035;-57
2021/05/04 07:19:16;;;;;;;17.60;2.90;;;;;;;;;;4925972;28;20656;-57
2021/05/04 07:21:41;;;;;;;14.35;2.75;;;;;;;;;;4906126;28;21315;-56
2021/05/04 07:24:10;;;;;;;18.83;2.95;;;;;;;;;;4926145;28;20044;-56
2021/05/04 07:26:38;;;;;;;11.43;2.72;;;;;;;;;;4925995;28;20514;-56
2021/05/04 07:29:09;;;;;;;19.17;3.15;;;;;;;;;;4925671;28;20066;-56
2021/05/04 07:31:35;;;;;;;15.25;2.45;;;;;;;;;;4934992;28;20442;-55
2021/05/04 07:34:04;;;;;;;17.20;2.72;;;;;;;;;;4927483;28;20063;-54
2021/05/04 07:36:30;;;;;;;13.73;2.05;;;;;;;;;;4930600;28;20495;-56
2021/05/04 07:38:59;;;;;;;12.27;2.05;;;;;;;;;;4931091;28;20032;-57
2021/05/04 07:41:26;;;;;;;11.13;1.77;;;;;;;;;;4930477;28;20027;-57
2021/05/04 07:43:54;;;;;;;15.60;2.55;;;;;;;;;;4944791;28;20514;-55
2021/05/04 07:46:20;;;;;;;10.73;2.00;;;;;;;;;;4934119;28;20114;-56
2021/05/04 07:48:49;;;;;;;6.65;1.75;;;;;;;;;;4931337;28;20062;-58
2021/05/04 07:51:14;;;;;;;16.20;2.78;;;;;;;;;;4915077;28;20062;-56
2021/05/04 07:53:40;;;;;;;14.90;2.22;;;;;;;;;;4931279;28;20371;-56
2021/05/04 07:56:08;;;;;;;23.52;2.50;;;;;;;;;;4930384;28;20027;-58
2021/05/04 07:58:33;;;;;;;11.48;2.40;;;;;;;;;;4932046;28;20085;-57
2021/05/04 08:00:59;;;;;;;15.13;2.33;;;;;;;;;;4944052;28;20027;-55
2021/05/04 08:03:27;;;;;;;15.13;2.10;;;;;;;;;;4945442;28;20052;-56
2021/05/04 08:05:52;;;;;;;11.68;2.08;;;;;;;;;;4930537;28;20081;-57
2021/05/04 08:08:21;;;;;;;13.90;1.95;;;;;;;;;;4931120;28;20820;-57
2021/05/04 08:10:47;;;;;;;18.45;1.70;;;;;;;;;;4931220;28;20038;-56
2021/05/04 08:13:18;;;;;;;15.15;2.53;;;;;;;;;;4945431;28;20189;-58
2021/05/04 08:15:44;;;;;;;9.85;2.00;;;;;;;;;;4916849;28;20081;-60
2021/05/04 08:18:14;;;;;;;12.10;2.05;;;;;;;;;;4930019;28;20253;-58
2021/05/04 08:20:54;;;;;;;16.05;2.47;;;;;;;;;;4932144;28;20039;-57
2021/05/04 08:23:24;;;;;;;12.00;1.67;;;;;;;;;;4925508;28;20063;-57
2021/05/04 08:25:51;;;;;;;4.68;1.50;;;;;;;;;;4931026;28;20472;-59
2021/05/04 08:28:17;;;;;;;8.93;1.55;;;;;;;;;;4930560;28;20572;-57
2021/05/04 08:30:43;;;;;;;10.48;2.03;;;;;;;;;;4929874;28;20117;-57
2021/05/04 08:33:09;;;;;;;13.82;1.65;;;;;;;;;;4930375;28;20039;-57
2021/05/04 08:35:35;;;;;;;9.82;1.70;;;;;;;;;;4929246;28;20035;-57
2021/05/04 08:38:03;;;;;;;9.23;1.40;;;;;;;;;;4925310;28;20522;-58
2021/05/04 08:40:29;;;;;;;7.07;1.05;;;;;;;;;;4914586;28;21972;-58
2021/05/04 08:42:54;;;;;;;6.60;1.35;;;;;;;;;;4928983;28;20035;-58
2021/05/04 08:45:22;;;;;;;7.93;1.90;;;;;;;;;;4922987;28;20074;-59
2021/05/04 08:47:49;;;;;;;9.40;1.42;;;;;;;;;;4933961;28;20122;-57
2021/05/04 08:50:18;;;;;;;5.13;1.35;;;;;;;;;;4928575;28;20039;-56
2021/05/04 08:52:43;;;;;;;7.50;1.50;;;;;;;;;;4931476;28;20146;-59
2021/05/04 08:55:10;;;;;;;6.72;1.38;;;;;;;;;;4944510;28;20035;-57
2021/05/04 08:57:37;;;;;;;10.60;2.05;;;;;;;;;;4929833;28;20043;-61
2021/05/04 09:00:04;;;;;;;12.73;1.50;;;;;;;;;;4932476;28;21765;-59
2021/05/04 09:02:33;;;;;;;6.40;1.33;;;;;;;;;;4929857;28;20039;-56
2021/05/04 09:05:12;;;;;;;8.38;1.83;;;;;;;;;;4924210;28;20686;-55
2021/05/04 09:07:38;;;;;;;4.07;1.38;;;;;;;;;;4945025;28;20078;-56
2021/05/04 09:12:47;;;;;;;8.25;1.30;;;;;;;;;;4930298;28;20039;-57
2021/05/04 09:18:21;;;;;;;7.18;1.25;;;;;;;;;;4930344;28;20035;-54
2021/05/04 09:21:02;;;;;;;6.10;1.35;;;;;;;;;;4928224;28;20510;-55
2021/05/04 09:23:28;;;;;;;7.03;1.30;;;;;;;;;;4929281;28;20081;-61
2021/05/04 09:25:54;;;;;;;6.93;1.25;;;;;;;;;;4929633;28;20023;-57
2021/05/04 09:28:25;;;;;;;8.98;1.55;;;;;;;;;;4928380;28;20117;-58
2021/05/04 09:30:55;;;;;;;10.40;1.33;;;;;;;;;;4928913;28;20046;-57
2021/05/04 09:33:22;;;;;;;5.38;1.50;;;;;;;;;;4925583;28;20046;-56
2021/05/04 09:35:48;;;;;;;6.22;1.38;;;;;;;;;;4930350;28;20027;-57
2021/05/04 09:38:15;;;;;;;5.57;0.80;;;;;;;;;;4929037;28;20407;-58
2021/05/04 09:40:46;;;;;;;8.45;1.50;;;;;;;;;;4948894;28;20035;-59
2021/05/04 09:43:18;;;;;;;2.67;0.88;;;;;;;;;;4920690;28;20046;-59
2021/05/04 09:45:51;;;;;;;3.35;0.85;;;;;;;;;;4926469;28;20039;-58
2021/05/04 09:48:21;;;;;;;10.98;1.60;;;;;;;;;;4911195;28;20069;-58
2021/05/04 09:50:54;;;;;;;5.05;1.23;;;;;;;;;;4948243;28;20121;-59
2021/05/04 09:53:23;;;;;;;8.68;0.70;;;;;;;;;;4928372;28;20066;-59
2021/05/04 09:55:50;;;;;;;8.48;1.50;;;;;;;;;;4928217;28;20023;-59
2021/05/04 09:58:16;;;;;;;3.22;0.90;;;;;;;;;;4928834;28;20035;-59
2021/05/04 10:00:42;;;;;;;6.55;1.38;;;;;;;;;;4913617;28;20816;-57
2021/05/04 10:03:10;;;;;;;8.20;1.40;;;;;;;;;;4927786;28;20164;-59
2021/05/04 10:05:36;;;;;;;6.18;0.90;;;;;;;;;;4930070;28;20031;-57
2021/05/04 10:08:02;;;;;;;11.90;1.35;;;;;;;;;;4922512;28;20067;-58
2021/05/04 10:10:27;;;;;;;5.68;1.33;;;;;;;;;;4929498;28;20208;-59
2021/05/04 10:12:53;;;;;;;3.90;1.00;;;;;;;;;;4941554;28;20059;-59
2021/05/04 10:15:23;;;;;;;5.35;1.00;;;;;;;;;;4928405;28;20157;-56
2021/05/04 10:17:48;;;;;;;1.83;0.93;;;;;;;;;;4936652;28;20043;-59
2021/05/04 10:20:15;;;;;;;6.53;1.63;;;;;;;;;;4927387;28;20046;-58
2021/05/04 10:22:44;;;;;;;11.30;2.10;;;;;;;;;;4913079;28;20039;-58
2021/05/04 10:25:14;;;;;;;5.55;1.13;;;;;;;;;;4927837;28;20046;-59
2021/05/04 10:27:45;;;;;;;8.40;1.55;;;;;;;;;;4929868;28;20677;-58
2021/05/04 10:30:12;;;;;;;11.48;1.73;;;;;;;;;;4928361;28;20038;-61
2021/05/04 10:32:46;;;;;;;9.10;1.70;;;;;;;;;;4926961;28;20142;-57
2021/05/04 10:35:40;;;;;;;12.43;1.75;;;;;;;;;;4924173;28;20150;-58
2021/05/04 10:38:07;;;;;;;6.93;1.40;;;;;;;;;;4926003;28;20039;-57
2021/05/04 10:40:34;;;;;;;3.67;0.95;;;;;;;;;;4928578;28;20054;-59
2021/05/04 10:43:27;;;;;;;3.40;0.57;;;;;;;;;;4927264;28;20106;-58
2021/05/04 10:45:56;;;;;;;8.18;0.52;;;;;;;;;;4927029;28;20059;-60
2021/05/04 10:48:34;;;;;;;1.65;0.30;;;;;;;;;;4919045;28;20767;-59
2021/05/04 10:51:02;;;;;;;0.73;0.40;;;;;;;;;;4925499;28;20495;-58
2021/05/04 10:53:48;;;;;;;10.07;1.20;;;;;;;;;;4926251;28;20125;-60
2021/05/04 10:56:15;;;;;;;3.88;0.73;;;;;;;;;;4925640;28;20089;-58
2021/05/04 10:58:48;;;;;;;2.78;0.52;;;;;;;;;;4940651;28;20044;-59
2021/05/04 11:01:18;;;;;;;1.83;0.52;;;;;;;;;;4929959;28;20054;-56
2021/05/04 11:03:44;;;;;;;5.22;0.70;;;;;;;;;;4942858;28;20398;-58
2021/05/04 11:06:14;;;;;;;2.65;0.60;;;;;;;;;;4927099;28;20039;-58
2021/05/04 11:08:43;;;;;;;4.00;0.60;;;;;;;;;;4925492;28;20046;-57
2021/05/04 11:11:23;;;;;;;9.13;1.13;;;;;;;;;;4931405;28;20042;-60
2021/05/04 11:13:57;;;;;;;3.60;0.70;;;;;;;;;;4929681;28;20031;-58
2021/05/04 11:16:36;;;;;;;3.10;0.60;;;;;;;;;;4931745;28;20030;-59
2021/05/04 11:19:04;;;;;;;6.35;0.90;;;;;;;;;;4932443;28;20043;-58
2021/05/04 11:21:48;;;;;;;6.25;1.10;;;;;;;;;;4924705;28;20027;-58
2021/05/04 11:24:15;;;;;;;4.63;0.98;;;;;;;;;;4932870;28;20477;-58
2021/05/04 11:26:51;;;;;;;1.52;0.73;;;;;;;;;;4931971;28;20074;-59
2021/05/04 11:29:21;;;;;;;2.17;0.73;;;;;;;;;;4933363;28;20133;-60
2021/05/04 11:31:50;;;;;;;4.95;0.70;;;;;;;;;;4928909;28;20035;-58
2021/05/04 11:34:35;;;;;;;2.17;0.57;;;;;;;;;;4931955;28;20138;-58
2021/05/04 11:37:00;;;;;;;3.27;0.57;;;;;;;;;;4928592;28;21232;-57
2021/05/04 11:39:26;;;;;;;0.85;0.38;;;;;;;;;;4930866;28;20633;-57
2021/05/04 11:41:59;;;;;;;4.18;0.80;;;;;;;;;;4930486;28;20506;-57
2021/05/04 11:44:28;;;;;;;4.22;1.00;;;;;;;;;;4931073;28;20157;-60
2021/05/04 11:46:54;;;;;;;4.28;0.85;;;;;;;;;;4930724;28;20165;-56
2021/05/04 11:49:26;;;;;;;3.47;0.77;;;;;;;;;;4932388;28;20161;-58
2021/05/04 11:52:21;;;;;;;1.63;0.50;;;;;;;;;;4944840;28;20047;-57
2021/05/04 11:54:52;;;;;;;1.02;0.68;;;;;;;;;;4922563;28;20122;-58
2021/05/04 11:57:18;;;;;;;3.45;1.02;;;;;;;;;;4928760;28;20031;-58
2021/05/04 11:59:44;;;;;;;5.18;0.82;;;;;;;;;;4929844;28;20045;-56
2021/05/04 12:02:25;;;;;;;3.47;0.73;;;;;;;;;;4930950;28;20036;-57
2021/05/04 12:04:51;;;;;;;5.55;1.10;;;;;;;;;;4928922;28;20513;-59
2021/05/04 12:07:39;;;;;;;4.15;0.95;;;;;;;;;;4929247;28;20055;-57
2021/05/04 12:10:19;;;;;;;4.20;1.30;;;;;;;;;;4931832;28;20043;-57
2021/05/04 12:12:45;;;;;;;9.27;1.30;;;;;;;;;;4930325;28;20471;-55
2021/05/04 12:15:13;;;;;;;5.93;1.05;;;;;;;;;;4939495;28;20085;-58
2021/05/04 12:17:41;;;;;;;8.45;1.08;;;;;;;;;;4927154;28;20039;-58
2021/05/04 12:20:08;;;;;;;6.25;0.60;;;;;;;;;;4922462;28;20038;-58
2021/05/04 12:22:44;;;;;;;3.33;0.90;;;;;;;;;;4922985;28;20050;-59
2021/05/04 12:25:11;;;;;;;0.55;0.55;;;;;;;;;;4931788;28;20036;-60
2021/05/04 12:27:40;;;;;;;2.67;1.00;;;;;;;;;;4928100;28;20082;-58
2021/05/04 12:30:07;;;;;;;4.00;0.70;;;;;;;;;;4929953;28;20054;-54
2021/05/04 12:32:33;;;;;;;7.47;1.80;;;;;;;;;;4949504;28;20035;-58
2021/05/04 12:35:14;;;;;;;3.72;0.70;;;;;;;;;;4929515;28;20138;-57
2021/05/04 12:37:40;;;;;;;5.78;1.13;;;;;;;;;;4929995;28;20027;-58
2021/05/04 12:40:13;;;;;;;5.85;1.13;;;;;;;;;;4931221;28;20050;-57
2021/05/04 12:42:39;;;;;;;5.28;1.45;;;;;;;;;;4938965;28;20070;-58
2021/05/04 12:45:10;;;;;;;2.95;1.02;;;;;;;;;;4931851;28;20040;-57
2021/05/04 12:47:49;;;;;;;7.63;1.65;;;;;;;;;;4929307;28;21014;-58
2021/05/04 12:50:35;;;;;;;3.17;1.45;;;;;;;;;;4929474;28;20147;-57
2021/05/04 12:53:01;;;;;;;3.30;1.65;;;;;;;;;;4927485;28;20142;-58
2021/05/04 12:55:28;;;;;;;4.55;1.20;;;;;;;;;;4929155;28;20102;-57
2021/05/04 12:58:07;;;;;;;2.22;1.08;;;;;;;;;;4943075;28;20031;-58
2021/05/04 13:00:33;;;;;;;3.90;1.30;;;;;;;;;;4929562;28;20270;-59
2021/05/04 13:03:12;;;;;;;4.80;1.02;;;;;;;;;;4929736;28;20453;-58
2021/05/04 13:05:42;;;;;;;1.85;0.50;;;;;;;;;;4945561;28;20133;-58
2021/05/04 13:08:10;;;;;;;3.22;0.93;;;;;;;;;;4926068;28;20042;-57
2021/05/04 13:37:10;;;;;;;2.97;0.85;;;;;;;;;;4927354;28;20023;-59
2021/05/04 13:47:51;;;;;;;10.48;1.40;;;;;;;;;;4925830;28;20027;-59
2021/05/04 13:50:19;;;;;;;4.40;0.80;;;;;;;;;;4927590;28;20055;-59
2021/05/04 13:52:44;;;;;;;7.22;1.20;;;;;;;;;;4947254;28;20043;-58
2021/05/04 13:55:10;;;;;;;2.28;0.75;;;;;;;;;;4931183;28;20035;-57
2021/05/04 13:57:37;;;;;;;5.38;1.08;;;;;;;;;;4929286;28;20042;-58
2021/05/04 14:00:05;;;;;;;6.20;1.52;;;;;;;;;;4914327;28;20039;-58
2021/05/04 14:08:14;;;;;;;4.53;1.20;;;;;;;;;;4930130;28;20051;-57
2021/05/04 14:26:50;;;;;;;1.13;0.80;;;;;;;;;;4929069;28;21065;-59
2021/05/04 14:29:16;;;;;;;5.45;1.10;;;;;;;;;;4898620;28;20047;-60
2021/05/04 14:31:45;;;;;;;8.85;1.10;;;;;;;;;;4943490;28;20031;-62
2021/05/04 14:34:12;;;;;;;5.85;1.65;;;;;;;;;;4929305;28;20027;-61
2021/05/04 14:36:57;;;;;;;7.47;0.80;;;;;;;;;;4927994;28;20027;-60
2021/05/04 15:01:06;;;;;;;6.65;1.50;;;;;;;;;;4909034;28;20047;-60
2021/05/04 15:03:26;;;;;;;10.77;2.38;;;;;;;;;;4920991;28;20442;-59
2021/05/04 15:05:54;;;;;;;9.80;1.48;;;;;;;;;;4943753;28;20089;-60
2021/05/04 15:08:20;;;;;;;5.50;1.33;;;;;;;;;;4925112;28;20114;-59
2021/05/04 15:10:49;;;;;;;11.07;1.48;;;;;;;;;;4925511;28;20099;-59
2021/05/04 15:13:17;;;;;;;6.35;1.60;;;;;;;;;;4925854;28;20166;-59
2021/05/04 15:23:44;;;;;;;2.55;1.13;;;;;;;;;;4926340;28;20106;-60
2021/05/04 15:26:09;;;;;;;3.03;1.30;;;;;;;;;;4910705;28;20604;-62
2021/05/04 15:28:37;;;;;;;8.88;1.58;;;;;;;;;;4926321;28;20070;-61
2021/05/04 15:31:03;;;;;;;10.65;2.00;;;;;;;;;;4941531;28;20035;-60
2021/05/04 15:33:34;;;;;;;5.07;1.27;;;;;;;;;;4926196;28;20031;-59
2021/05/04 15:36:17;;;;;;;5.75;1.38;;;;;;;;;;4927075;28;20127;-59
2021/05/04 15:38:44;;;;;;;9.07;1.80;;;;;;;;;;4924450;28;20494;-62
2021/05/04 15:41:10;;;;;;;9.65;3.67;;;;;;;;;;4941350;28;20042;-63
2021/05/04 15:43:40;;;;;;;4.57;1.50;;;;;;;;;;4921317;28;20035;-60
2021/05/04 15:48:56;;;;;;;11.90;2.45;;;;;;;;;;4924095;28;20071;-60
2021/05/04 16:08:01;;;;;;;15.02;1.95;;;;;;;;;;4929168;28;20042;-62
2021/05/04 16:10:26;;;;;;;10.73;1.45;;;;;;;;;;4930645;28;20047;-59
2021/05/04 16:12:53;;;;;;;17.02;2.42;;;;;;;;;;4924423;28;20063;-61
2021/05/04 16:15:24;;;;;;;15.23;2.03;;;;;;;;;;4929384;28;20031;-58
2021/05/04 16:17:51;;;;;;;11.65;2.08;;;;;;;;;;4929828;28;20039;-60
2021/05/04 16:20:43;;;;;;;10.70;1.90;;;;;;;;;;4944430;28;20161;-61
2021/05/04 16:23:08;;;;;;;8.48;2.03;;;;;;;;;;4945430;28;20043;-59
2021/05/04 16:26:08;;;;;;;8.55;1.88;;;;;;;;;;4944554;28;20035;-60
2021/05/04 16:30:51;;;;;;;12.32;2.13;;;;;;;;;;4930204;28;20036;-56
2021/05/04 16:33:24;;;;;;;15.45;1.90;;;;;;;;;;4929172;28;20078;-60
2021/05/04 16:35:49;;;;;;;13.50;2.22;;;;;;;;;;4930937;28;20126;-57